createdAt,value
2023-05-08T00:01:54.868Z,99118.88
2023-05-08T00:04:21.404Z,99126.31
2023-05-08T00:06:48.295Z,99127.35
2023-05-08T00:09:14.956Z,99129.95
2023-05-08T00:11:41.501Z,99128.80
2023-05-08T00:14:08.046Z,99131.42
2023-05-08T00:16:34.538Z,99129.55
2023-05-08T00:19:01.472Z,99129.73
2023-05-08T00:21:27.992Z,99127.14
2023-05-08T00:23:55.009Z,99128.52
2023-05-08T00:26:21.493Z,99129.73
2023-05-08T00:28:48.591Z,99128.02
2023-05-08T00:31:15.180Z,99130.42
2023-05-08T00:33:41.689Z,99131.31
2023-05-08T00:36:08.323Z,99129.28
2023-05-08T00:38:36.231Z,99131.83
2023-05-08T00:41:04.057Z,99130.45
2023-05-08T00:43:30.682Z,99132.01
2023-05-08T00:46:00.600Z,99136.45
2023-05-08T00:48:33.970Z,99136.66
2023-05-08T00:51:03.103Z,99138.61
2023-05-08T00:53:30.620Z,99138.31
2023-05-08T00:55:57.933Z,99136.80
2023-05-08T00:58:27.214Z,99138.01
2023-05-08T01:00:55.869Z,99139.40
2023-05-08T01:03:24.193Z,99140.65
2023-05-08T01:05:51.137Z,99142.90
2023-05-08T01:08:17.597Z,99141.55
2023-05-08T01:11:02.554Z,99143.45
2023-05-08T01:14:00.235Z,99147.73
2023-05-08T01:16:44.458Z,99147.03
2023-05-08T01:19:49.150Z,99154.23
2023-05-08T01:22:42.042Z,99157.69
2023-05-08T01:25:27.344Z,99155.25
2023-05-08T01:28:28.616Z,99155.61
2023-05-08T01:31:01.185Z,99150.95
2023-05-08T01:33:36.724Z,99154.23
2023-05-08T01:36:29.095Z,99152.00
2023-05-08T01:39:20.437Z,99154.23
2023-05-08T01:42:02.847Z,99160.59
2023-05-08T01:44:37.636Z,99160.91
2023-05-08T01:47:09.095Z,99154.54
2023-05-08T01:49:46.079Z,99156.23
2023-05-08T01:52:31.843Z,99160.91
2023-05-08T01:55:03.467Z,99160.27
2023-05-08T01:57:33.282Z,99159.93
2023-05-08T02:00:02.562Z,99164.11
2023-05-08T02:02:32.066Z,99162.43
2023-05-08T02:05:06.699Z,99165.20
2023-05-08T02:07:34.852Z,99162.30
2023-05-08T02:10:03.311Z,99161.10
2023-05-08T02:12:31.599Z,99160.80
2023-05-08T02:15:00.393Z,99160.14
2023-05-08T02:17:28.163Z,99163.07
2023-05-08T02:19:58.117Z,99163.27
2023-05-08T02:22:26.227Z,99163.48
2023-05-08T02:24:53.970Z,99160.91
2023-05-08T02:27:23.020Z,99164.03
2023-05-08T02:29:52.139Z,99167.48
2023-05-08T02:32:21.314Z,99163.38
2023-05-08T02:35:01.913Z,99163.89
2023-05-08T02:37:31.774Z,99165.60
2023-05-08T02:39:58.978Z,99167.65
2023-05-08T02:42:25.914Z,99173.31
2023-05-08T02:44:52.465Z,99172.42
2023-05-08T02:47:53.257Z,99173.96
2023-05-08T02:50:27.239Z,99174.42
2023-05-08T02:53:03.852Z,99175.09
2023-05-08T02:55:40.670Z,99170.96
2023-05-08T02:58:36.279Z,99177.48
2023-05-08T03:01:14.427Z,99174.86
2023-05-08T03:03:50.221Z,99172.09
2023-05-08T03:06:21.678Z,99170.84
2023-05-08T03:08:50.565Z,99166.87
2023-05-08T03:11:22.722Z,99167.20
2023-05-08T03:13:51.318Z,99166.14
2023-05-08T03:16:25.335Z,99168.52
2023-05-08T03:19:03.706Z,99169.69
2023-05-08T03:21:31.892Z,99173.46
2023-05-08T03:24:02.273Z,99175.33
2023-05-08T03:26:29.249Z,99180.31
2023-05-08T03:28:56.706Z,99181.70
2023-05-08T03:31:24.250Z,99186.83
2023-05-08T03:33:53.637Z,99184.42
2023-05-08T03:36:20.737Z,99180.96
2023-05-08T03:38:47.763Z,99179.25
2023-05-08T03:41:14.919Z,99181.66
2023-05-08T03:43:41.754Z,99183.73
2023-05-08T03:46:08.746Z,99187.67
2023-05-08T03:48:35.697Z,99184.73
2023-05-08T03:51:04.358Z,99186.96
2023-05-08T03:53:32.462Z,99187.48
2023-05-08T03:56:00.991Z,99192.30
2023-05-08T03:58:47.313Z,99195.41
2023-05-08T04:01:18.425Z,99193.70
2023-05-08T04:04:03.277Z,99193.19
2023-05-08T04:06:50.424Z,99198.20
2023-05-08T04:09:23.705Z,99197.85
2023-05-08T04:12:05.899Z,99203.69
2023-05-08T04:14:42.735Z,99205.73
2023-05-08T04:17:12.373Z,99203.31
2023-05-08T04:19:45.256Z,99207.92
2023-05-08T04:22:12.906Z,99212.02
2023-05-08T04:24:43.688Z,99210.80
2023-05-08T04:27:10.727Z,99220.98
2023-05-08T04:29:37.984Z,99219.14
2023-05-08T04:32:08.604Z,99227.05
2023-05-08T04:34:36.199Z,99229.63
2023-05-08T04:37:03.138Z,99231.67
2023-05-08T04:39:29.793Z,99235.96
2023-05-08T04:41:56.375Z,99238.88
2023-05-08T04:44:22.920Z,99236.75
2023-05-08T04:46:49.339Z,99237.25
2023-05-08T04:49:15.813Z,99233.56
2023-05-08T04:51:42.270Z,99236.64
2023-05-08T04:54:09.215Z,99236.30
2023-05-08T04:56:35.867Z,99241.58
2023-05-08T04:59:02.524Z,99245.35
2023-05-08T05:01:28.963Z,99247.42
2023-05-08T05:03:55.781Z,99255.50
2023-05-08T05:06:22.513Z,99252.40
2023-05-08T05:08:49.121Z,99257.34
2023-05-08T05:11:15.807Z,99257.84
2023-05-08T05:13:42.658Z,99256.78
2023-05-08T05:16:09.227Z,99257.27
2023-05-08T05:18:36.102Z,99262.39
2023-05-08T05:21:02.545Z,99257.05
2023-05-08T05:23:29.084Z,99257.68
2023-05-08T05:25:55.693Z,99259.91
2023-05-08T05:28:22.116Z,99266.46
2023-05-08T05:30:48.762Z,99267.70
2023-05-08T05:33:15.230Z,99275.65
2023-05-08T05:35:41.847Z,99277.10
2023-05-08T05:38:08.348Z,99279.77
2023-05-08T05:40:34.961Z,99280.14
2023-05-08T05:43:01.622Z,99281.74
2023-05-08T05:45:28.237Z,99287.44
2023-05-08T05:47:54.960Z,99290.20
2023-05-08T05:50:21.813Z,99292.39
2023-05-08T05:52:48.540Z,99292.03
2023-05-08T05:55:15.313Z,99293.88
2023-05-08T05:57:42.054Z,99292.89
2023-05-08T06:00:09.151Z,99298.32
2023-05-08T06:02:38.550Z,99300.50
2023-05-08T06:05:05.901Z,99298.50
2023-05-08T06:07:32.333Z,99299.92
2023-05-08T06:09:58.987Z,99303.26
2023-05-08T06:12:26.251Z,99301.61
2023-05-08T06:14:52.697Z,99304.15
2023-05-08T06:17:19.377Z,99305.05
2023-05-08T06:19:46.210Z,99302.69
2023-05-08T06:22:12.660Z,99303.67
2023-05-08T06:24:39.220Z,99303.34
2023-05-08T06:27:05.686Z,99307.83
2023-05-08T06:29:32.309Z,99309.48
2023-05-08T06:31:58.771Z,99312.86
2023-05-08T06:34:25.418Z,99315.63
2023-05-08T06:36:52.021Z,99314.41
2023-05-08T06:39:18.720Z,99314.55
2023-05-08T06:41:48.506Z,99316.41
2023-05-08T06:44:15.707Z,99320.20
2023-05-08T06:46:42.621Z,99318.15
2023-05-08T06:49:09.117Z,99325.23
2023-05-08T06:51:35.657Z,99329.77
2023-05-08T06:54:02.541Z,99329.27
2023-05-08T06:56:29.117Z,99331.52
2023-05-08T06:59:05.027Z,99332.42
2023-05-08T07:01:34.909Z,99335.80
2023-05-08T07:04:01.642Z,99338.27
2023-05-08T07:06:28.356Z,99341.38
2023-05-08T07:08:54.830Z,99335.86
2023-05-08T07:11:21.350Z,99343.31
2023-05-08T07:13:47.814Z,99343.03
2023-05-08T07:16:15.488Z,99343.83
2023-05-08T07:18:43.072Z,99348.45
2023-05-08T07:21:10.135Z,99346.06
2023-05-08T07:23:36.933Z,99353.54
2023-05-08T07:26:03.710Z,99352.63
2023-05-08T07:28:30.222Z,99354.84
2023-05-08T07:30:56.899Z,99355.20
2023-05-08T07:33:23.632Z,99358.99
2023-05-08T07:35:50.281Z,99365.41
2023-05-08T07:38:16.833Z,99362.75
2023-05-08T07:40:43.265Z,99369.27
2023-05-08T07:43:09.833Z,99374.34
2023-05-08T07:45:36.340Z,99374.02
2023-05-08T07:48:02.910Z,99378.59
2023-05-08T07:50:29.587Z,99375.25
2023-05-08T07:52:56.063Z,99373.86
2023-05-08T07:55:22.764Z,99369.73
2023-05-08T07:57:49.212Z,99373.03
2023-05-08T08:00:16.353Z,99370.86
2023-05-08T08:02:44.539Z,99376.42
2023-05-08T08:05:11.832Z,99378.49
2023-05-08T08:07:38.790Z,99375.41
2023-05-08T08:10:06.065Z,99377.77
2023-05-08T08:12:32.515Z,99376.52
2023-05-08T08:14:59.081Z,99382.55
2023-05-08T08:17:28.532Z,99379.88
2023-05-08T08:19:55.664Z,99386.05
2023-05-08T08:22:22.184Z,99387.75
2023-05-08T08:24:48.787Z,99388.75
2023-05-08T08:27:15.210Z,99386.84
2023-05-08T08:29:42.032Z,99386.05
2023-05-08T08:32:08.647Z,99396.83
2023-05-08T08:34:35.537Z,99391.73
2023-05-08T08:37:02.101Z,99393.23
2023-05-08T08:39:33.036Z,99390.84
2023-05-08T08:41:59.619Z,99395.81
2023-05-08T08:44:26.345Z,99395.86
2023-05-08T08:46:53.866Z,99397.41
2023-05-08T08:49:28.659Z,99394.58
2023-05-08T08:51:59.276Z,99401.69
2023-05-08T08:54:29.851Z,99405.30
2023-05-08T08:57:00.724Z,99404.91
2023-05-08T08:59:28.982Z,99404.55
2023-05-08T09:01:58.991Z,99403.61
2023-05-08T09:04:25.538Z,99400.50
2023-05-08T09:06:52.074Z,99405.34
2023-05-08T09:09:18.570Z,99396.95
2023-05-08T09:11:46.910Z,99399.70
2023-05-08T09:14:13.392Z,99397.50
2023-05-08T09:16:40.213Z,99396.15
2023-05-08T09:19:07.861Z,99394.15
2023-05-08T09:21:34.805Z,99392.02
2023-05-08T09:24:03.924Z,99398.16
2023-05-08T09:26:40.049Z,99395.51
2023-05-08T09:29:18.191Z,99394.77
2023-05-08T09:31:46.986Z,99397.58
2023-05-08T09:34:31.029Z,99398.02
2023-05-08T09:37:12.388Z,99397.94
2023-05-08T09:39:38.847Z,99407.38
2023-05-08T09:42:05.497Z,99408.17
2023-05-08T09:44:53.592Z,99406.34
2023-05-08T09:47:22.546Z,99404.59
2023-05-08T09:49:59.506Z,99401.82
2023-05-08T09:52:27.221Z,99392.73
2023-05-08T09:54:57.530Z,99403.67
2023-05-08T09:57:24.073Z,99399.02
2023-05-08T09:59:50.542Z,99398.52
2023-05-08T10:02:17.098Z,99402.54
2023-05-08T10:04:43.764Z,99400.34
2023-05-08T10:07:10.386Z,99399.98
2023-05-08T10:09:49.818Z,99401.27
2023-05-08T10:12:17.557Z,99399.89
2023-05-08T10:14:46.505Z,99397.90
2023-05-08T10:17:18.178Z,99396.48
2023-05-08T10:19:46.036Z,99396.88
2023-05-08T10:22:15.216Z,99391.36
2023-05-08T10:24:44.205Z,99392.95
2023-05-08T10:27:23.330Z,99384.37
2023-05-08T10:29:54.720Z,99383.21
2023-05-08T10:32:23.018Z,99385.05
2023-05-08T10:34:56.458Z,99377.96
2023-05-08T10:37:23.183Z,99377.80
2023-05-08T10:39:50.241Z,99375.13
2023-05-08T10:42:17.181Z,99374.32
2023-05-08T10:44:44.185Z,99368.35
2023-05-08T10:47:25.061Z,99366.33
2023-05-08T10:50:11.293Z,99369.73
2023-05-08T10:53:06.477Z,99368.59
2023-05-08T10:55:36.307Z,99366.70
2023-05-08T10:58:10.945Z,99367.30
2023-05-08T11:00:52.664Z,99369.84
2023-05-08T11:03:33.224Z,99371.83
2023-05-08T11:06:01.582Z,99368.83
2023-05-08T11:08:30.271Z,99369.52
2023-05-08T11:10:59.491Z,99368.88
2023-05-08T11:13:33.626Z,99363.48
2023-05-08T11:16:00.297Z,99368.24
2023-05-08T11:18:32.491Z,99367.77
2023-05-08T11:21:15.769Z,99364.34
2023-05-08T11:23:42.362Z,99360.98
2023-05-08T11:26:15.796Z,99356.92
2023-05-08T11:28:54.397Z,99356.63
2023-05-08T11:31:21.277Z,99361.17
2023-05-08T11:33:47.753Z,99358.06
2023-05-08T11:36:18.959Z,99360.36
2023-05-08T11:39:06.012Z,99359.71
2023-05-08T11:41:32.510Z,99360.41
2023-05-08T11:44:14.922Z,99360.17
2023-05-08T11:46:42.793Z,99362.14
2023-05-08T11:49:14.664Z,99365.23
2023-05-08T11:51:41.565Z,99363.39
2023-05-08T11:54:09.237Z,99357.92
2023-05-08T11:56:38.653Z,99357.41
2023-05-08T11:59:06.217Z,99354.09
2023-05-08T12:01:32.936Z,99356.84
2023-05-08T12:04:07.417Z,99360.07
2023-05-08T12:06:35.609Z,99357.81
2023-05-08T12:09:02.741Z,99358.77
2023-05-08T12:11:29.188Z,99360.16
2023-05-08T12:13:55.749Z,99361.85
2023-05-08T12:16:25.308Z,99359.97
2023-05-08T12:18:53.121Z,99360.44
2023-05-08T12:21:21.151Z,99356.42
2023-05-08T12:23:47.796Z,99355.83
2023-05-08T12:26:15.300Z,99350.88
2023-05-08T12:28:44.584Z,99353.14
2023-05-08T12:31:11.646Z,99354.55
2023-05-08T12:33:38.444Z,99347.20
2023-05-08T12:36:05.893Z,99345.98
2023-05-08T12:38:32.494Z,99343.23
2023-05-08T12:40:58.971Z,99340.64
2023-05-08T12:43:33.174Z,99346.50
2023-05-08T12:45:59.643Z,99352.13
2023-05-08T12:48:26.977Z,99352.71
2023-05-08T12:50:53.650Z,99354.05
2023-05-08T12:53:21.917Z,99354.34
2023-05-08T12:55:54.780Z,99360.57
2023-05-08T12:58:26.449Z,99356.37
2023-05-08T13:00:54.008Z,99358.13
2023-05-08T13:03:29.068Z,99353.83
2023-05-08T13:05:57.780Z,99357.07
2023-05-08T13:08:38.065Z,99352.27
2023-05-08T13:11:06.413Z,99350.79
2023-05-08T13:13:35.527Z,99349.51
2023-05-08T13:16:04.568Z,99346.59
2023-05-08T13:18:31.579Z,99348.13
2023-05-08T13:20:58.147Z,99348.58
2023-05-08T13:23:25.974Z,99348.18
2023-05-08T13:25:52.526Z,99342.42
2023-05-08T13:28:19.170Z,99338.80
2023-05-08T13:30:45.771Z,99339.12
2023-05-08T13:33:12.291Z,99333.94
2023-05-08T13:35:38.965Z,99334.20
2023-05-08T13:38:05.486Z,99341.69
2023-05-08T13:40:32.168Z,99339.60
2023-05-08T13:42:59.009Z,99335.45
2023-05-08T13:45:25.586Z,99337.58
2023-05-08T13:47:52.162Z,99335.92
2023-05-08T13:50:19.525Z,99337.96
2023-05-08T13:52:45.991Z,99339.10
2023-05-08T13:55:14.137Z,99328.27
2023-05-08T13:57:41.583Z,99321.44
2023-05-08T14:00:09.214Z,99320.67
2023-05-08T14:02:36.424Z,99327.80
2023-05-08T14:05:03.773Z,99326.56
2023-05-08T14:07:30.407Z,99325.54
2023-05-08T14:09:56.861Z,99328.58
2023-05-08T14:12:23.365Z,99328.17
2023-05-08T14:14:49.979Z,99329.75
2023-05-08T14:17:16.458Z,99326.50
2023-05-08T14:19:42.938Z,99329.15
2023-05-08T14:22:09.496Z,99329.55
2023-05-08T14:24:35.984Z,99329.54
2023-05-08T14:27:02.563Z,99329.34
2023-05-08T14:29:29.204Z,99332.98
2023-05-08T14:31:55.741Z,99336.95
2023-05-08T14:34:22.265Z,99332.73
2023-05-08T14:36:48.814Z,99334.90
2023-05-08T14:39:15.277Z,99337.36
2023-05-08T14:41:48.133Z,99336.19
2023-05-08T14:44:26.222Z,99335.85
2023-05-08T14:46:52.721Z,99335.55
2023-05-08T14:49:32.754Z,99338.13
2023-05-08T14:52:03.981Z,99340.71
2023-05-08T14:54:30.701Z,99340.02
2023-05-08T14:56:57.471Z,99345.98
2023-05-08T14:59:24.112Z,99346.34
2023-05-08T15:01:50.564Z,99352.47
2023-05-08T15:04:17.385Z,99354.16
2023-05-08T15:06:44.073Z,99349.30
2023-05-08T15:09:10.600Z,99353.88
2023-05-08T15:11:37.549Z,99351.48
2023-05-08T15:14:05.405Z,99349.52
2023-05-08T15:16:32.027Z,99348.59
2023-05-08T15:18:58.783Z,99353.30
2023-05-08T15:21:25.611Z,99353.77
2023-05-08T15:23:53.574Z,99348.12
2023-05-08T15:26:20.046Z,99348.69
2023-05-08T15:28:46.798Z,99345.07
2023-05-08T15:31:13.355Z,99342.23
2023-05-08T15:33:39.761Z,99337.41
2023-05-08T15:36:06.858Z,99337.24
2023-05-08T15:38:33.309Z,99336.61
2023-05-08T15:40:59.852Z,99336.02
2023-05-08T15:43:26.361Z,99335.45
2023-05-08T15:45:52.930Z,99333.60
2023-05-08T15:48:19.471Z,99335.39
2023-05-08T15:50:46.253Z,99334.23
2023-05-08T15:53:12.807Z,99328.79
2023-05-08T15:55:39.569Z,99327.73
2023-05-08T15:58:06.316Z,99325.25
2023-05-08T16:00:44.097Z,99322.55
2023-05-08T16:03:11.671Z,99319.64
2023-05-08T16:05:38.331Z,99322.87
2023-05-08T16:08:05.309Z,99323.95
2023-05-08T16:10:31.981Z,99316.02
2023-05-08T16:12:58.836Z,99312.77
2023-05-08T16:15:25.296Z,99311.35
2023-05-08T16:17:51.798Z,99309.98
2023-05-08T16:20:18.291Z,99309.56
2023-05-08T16:22:44.799Z,99310.11
2023-05-08T16:25:11.506Z,99309.96
2023-05-08T16:27:38.158Z,99310.05
2023-05-08T16:30:05.313Z,99310.34
2023-05-08T16:32:32.164Z,99313.38
2023-05-08T16:34:58.727Z,99315.09
2023-05-08T16:37:25.436Z,99316.66
2023-05-08T16:39:51.987Z,99319.91
2023-05-08T16:42:18.528Z,99315.61
2023-05-08T16:44:45.162Z,99314.95
2023-05-08T16:47:11.703Z,99317.92
2023-05-08T16:49:38.342Z,99321.64
2023-05-08T16:52:04.775Z,99324.04
2023-05-08T16:54:31.209Z,99324.38
2023-05-08T16:56:57.675Z,99323.19
2023-05-08T16:59:24.310Z,99324.88
2023-05-08T17:01:50.779Z,99322.35
2023-05-08T17:04:17.532Z,99324.06
2023-05-08T17:06:44.056Z,99322.10
2023-05-08T17:09:10.660Z,99328.70
2023-05-08T17:11:37.211Z,99325.13
2023-05-08T17:14:03.685Z,99326.89
2023-05-08T17:16:30.163Z,99329.02
2023-05-08T17:18:56.637Z,99330.96
2023-05-08T17:21:23.196Z,99331.05
2023-05-08T17:23:49.635Z,99336.05
2023-05-08T17:26:16.213Z,99337.84
2023-05-08T17:28:42.665Z,99338.48
2023-05-08T17:31:09.322Z,99342.25
2023-05-08T17:33:35.850Z,99341.27
2023-05-08T17:36:02.402Z,99341.71
2023-05-08T17:38:28.945Z,99338.42
2023-05-08T17:40:55.381Z,99342.91
2023-05-08T17:43:21.829Z,99343.40
2023-05-08T17:45:48.362Z,99342.65
2023-05-08T17:48:14.811Z,99345.03
2023-05-08T17:50:41.272Z,99341.73
2023-05-08T17:53:07.864Z,99346.16
2023-05-08T17:55:34.293Z,99348.38
2023-05-08T17:58:00.815Z,99347.94
2023-05-08T18:00:27.347Z,99349.60
2023-05-08T18:02:54.018Z,99349.90
2023-05-08T18:05:20.876Z,99355.39
2023-05-08T18:07:47.327Z,99356.70
2023-05-08T18:10:13.959Z,99356.89
2023-05-08T18:12:40.703Z,99355.36
2023-05-08T18:15:07.919Z,99355.26
2023-05-08T18:17:34.549Z,99356.23
2023-05-08T18:20:01.093Z,99360.93
2023-05-08T18:22:27.535Z,99359.96
2023-05-08T18:24:54.011Z,99364.30
2023-05-08T18:27:20.400Z,99367.08
2023-05-08T18:29:46.845Z,99367.27
2023-05-08T18:32:13.361Z,99371.61
2023-05-08T18:34:39.801Z,99373.15
2023-05-08T18:37:06.237Z,99377.45
2023-05-08T18:39:32.811Z,99378.83
2023-05-08T18:41:59.196Z,99377.78
2023-05-08T18:44:25.655Z,99382.09
2023-05-08T18:46:52.060Z,99382.76
2023-05-08T18:49:18.628Z,99383.76
2023-05-08T18:51:45.532Z,99389.93
2023-05-08T18:54:11.986Z,99389.38
2023-05-08T18:56:38.450Z,99388.41
2023-05-08T18:59:04.998Z,99395.20
2023-05-08T19:01:31.426Z,99393.42
2023-05-08T19:03:57.955Z,99395.62
2023-05-08T19:06:24.741Z,99394.92
2023-05-08T19:08:51.283Z,99389.25
2023-05-08T19:11:18.426Z,99392.60
2023-05-08T19:13:45.205Z,99392.47
2023-05-08T19:16:11.729Z,99390.60
2023-05-08T19:18:38.403Z,99390.13
2023-05-08T19:21:04.940Z,99395.02
2023-05-08T19:23:31.390Z,99392.20
2023-05-08T19:25:57.787Z,99391.41
2023-05-08T19:28:24.296Z,99393.41
2023-05-08T19:30:51.152Z,99394.37
2023-05-08T19:33:17.701Z,99393.92
2023-05-08T19:35:44.250Z,99388.15
2023-05-08T19:38:10.667Z,99388.91
2023-05-08T19:40:51.986Z,99386.06
2023-05-08T19:43:22.923Z,99389.75
2023-05-08T19:45:49.600Z,99387.36
2023-05-08T19:48:18.148Z,99387.89
2023-05-08T19:50:45.185Z,99385.83
2023-05-08T19:53:11.663Z,99382.70
2023-05-08T19:55:38.066Z,99379.74
2023-05-08T19:58:04.558Z,99374.91
2023-05-08T20:00:31.134Z,99375.77
2023-05-08T20:02:57.756Z,99375.91
2023-05-08T20:05:24.426Z,99378.61
2023-05-08T20:07:50.867Z,99375.44
2023-05-08T20:10:17.600Z,99375.36
2023-05-08T20:12:44.365Z,99372.36
2023-05-08T20:15:11.009Z,99372.47
2023-05-08T20:17:37.510Z,99373.45
2023-05-08T20:20:04.696Z,99371.66
2023-05-08T20:22:31.190Z,99373.47
2023-05-08T20:24:57.596Z,99373.23
2023-05-08T20:27:24.062Z,99373.19
2023-05-08T20:29:50.471Z,99377.76
2023-05-08T20:32:16.918Z,99380.39
2023-05-08T20:34:43.553Z,99377.08
2023-05-08T20:37:10.106Z,99377.18
2023-05-08T20:39:36.629Z,99374.71
2023-05-08T20:42:03.705Z,99373.45
2023-05-08T20:44:30.156Z,99372.70
2023-05-08T20:46:56.920Z,99372.64
2023-05-08T20:49:23.457Z,99375.98
2023-05-08T20:51:49.886Z,99375.73
2023-05-08T20:54:16.333Z,99376.27
2023-05-08T20:56:42.879Z,99375.46
2023-05-08T20:59:09.763Z,99378.59
2023-05-08T21:01:36.448Z,99372.66
2023-05-08T21:04:02.902Z,99371.02
2023-05-08T21:06:29.314Z,99370.63
2023-05-08T21:08:55.784Z,99367.29
2023-05-08T21:11:22.319Z,99362.71
2023-05-08T21:13:49.058Z,99365.19
2023-05-08T21:16:15.973Z,99364.73
2023-05-08T21:18:42.491Z,99366.67
2023-05-08T21:21:18.539Z,99361.06
2023-05-08T21:23:45.263Z,99357.84
2023-05-08T21:26:12.370Z,99360.43
2023-05-08T21:28:39.125Z,99357.20
2023-05-08T21:31:05.627Z,99362.20
2023-05-08T21:33:33.448Z,99362.23
2023-05-08T21:35:59.978Z,99361.23
2023-05-08T21:38:26.546Z,99362.30
2023-05-08T21:40:53.108Z,99360.61
2023-05-08T21:43:19.539Z,99355.68
2023-05-08T21:45:46.084Z,99356.58
2023-05-08T21:48:13.013Z,99355.58
2023-05-08T21:50:39.448Z,99354.08
2023-05-08T21:53:06.023Z,99357.35
2023-05-08T21:55:32.625Z,99355.13
2023-05-08T21:57:59.187Z,99361.30
2023-05-08T22:00:25.619Z,99355.36
2023-05-08T22:02:52.149Z,99355.89
2023-05-08T22:05:18.761Z,99355.05
2023-05-08T22:07:45.315Z,99351.98
2023-05-08T22:10:11.894Z,99349.77
2023-05-08T22:12:38.440Z,99350.63
2023-05-08T22:15:11.866Z,99350.15
2023-05-08T22:17:41.867Z,99348.64
2023-05-08T22:20:11.615Z,99348.33
2023-05-08T22:22:38.025Z,99343.55
2023-05-08T22:25:05.121Z,99340.98
2023-05-08T22:27:31.644Z,99340.85
2023-05-08T22:29:58.202Z,99343.60
2023-05-08T22:32:24.646Z,99341.57
2023-05-08T22:34:51.366Z,99342.11
2023-05-08T22:37:17.850Z,99333.90
2023-05-08T22:39:44.306Z,99333.20
2023-05-08T22:42:11.193Z,99338.35
2023-05-08T22:44:38.254Z,99338.88
2023-05-08T22:47:05.310Z,99339.91
2023-05-08T22:49:32.055Z,99335.45
2023-05-08T22:51:58.556Z,99331.18
2023-05-08T22:54:25.116Z,99333.23
2023-05-08T22:56:51.562Z,99330.14
2023-05-08T22:59:18.015Z,99328.27
2023-05-08T23:01:44.494Z,99329.64
2023-05-08T23:04:11.134Z,99328.65
2023-05-08T23:06:37.630Z,99336.38
2023-05-08T23:09:04.059Z,99335.86
2023-05-08T23:11:30.553Z,99332.97
2023-05-08T23:13:56.977Z,99326.81
2023-05-08T23:16:23.444Z,99322.20
2023-05-08T23:18:50.117Z,99317.41
2023-05-08T23:21:16.735Z,99316.04
2023-05-08T23:23:43.148Z,99315.18
2023-05-08T23:26:09.679Z,99315.19
2023-05-08T23:28:36.605Z,99315.02
2023-05-08T23:31:04.032Z,99312.64
2023-05-08T23:33:31.050Z,99308.20
2023-05-08T23:35:59.001Z,99312.32
2023-05-08T23:38:25.907Z,99309.25
2023-05-08T23:40:52.477Z,99309.95
2023-05-08T23:43:19.075Z,99313.02
2023-05-08T23:45:45.576Z,99314.22
2023-05-08T23:48:12.111Z,99312.17
2023-05-08T23:50:38.577Z,99312.35
2023-05-08T23:53:05.192Z,99303.98
2023-05-08T23:55:31.981Z,99304.66
2023-05-08T23:57:58.487Z,99307.58
